sensor_id;sensor_type;location;lat;lon;timestamp;P1;durP1;ratioP1;P2;durP2;ratioP2
76978;SDS011;65911;47.502;19.148;2023-03-21T00:01:52;7.32;;;4.70;;
76978;SDS011;65911;47.502;19.148;2023-03-21T00:04:55;9.98;;;4.60;;
76978;SDS011;65911;47.502;19.148;2023-03-21T00:08:04;7.53;;;5.00;;
76978;SDS011;65911;47.502;19.148;2023-03-21T00:11:07;6.60;;;4.97;;
76978;SDS011;65911;47.502;19.148;2023-03-21T00:14:10;8.63;;;5.07;;
76978;SDS011;65911;47.502;19.148;2023-03-21T00:17:16;8.67;;;4.83;;
76978;SDS011;65911;47.502;19.148;2023-03-21T00:20:18;8.70;;;5.55;;
76978;SDS011;65911;47.502;19.148;2023-03-21T00:23:21;7.05;;;4.70;;
76978;SDS011;65911;47.502;19.148;2023-03-21T00:26:23;7.55;;;5.15;;
76978;SDS011;65911;47.502;19.148;2023-03-21T00:29:26;7.45;;;5.25;;
76978;SDS011;65911;47.502;19.148;2023-03-21T00:32:29;7.60;;;4.80;;
76978;SDS011;65911;47.502;19.148;2023-03-21T00:35:31;10.85;;;5.30;;
76978;SDS011;65911;47.502;19.148;2023-03-21T00:38:53;7.10;;;4.63;;
76978;SDS011;65911;47.502;19.148;2023-03-21T00:41:55;10.43;;;5.10;;
76978;SDS011;65911;47.502;19.148;2023-03-21T00:44:58;6.68;;;4.97;;
76978;SDS011;65911;47.502;19.148;2023-03-21T00:48:00;6.80;;;4.97;;
76978;SDS011;65911;47.502;19.148;2023-03-21T00:51:09;7.32;;;4.65;;
76978;SDS011;65911;47.502;19.148;2023-03-21T00:54:13;7.18;;;5.32;;
76978;SDS011;65911;47.502;19.148;2023-03-21T00:57:15;6.72;;;4.15;;
76978;SDS011;65911;47.502;19.148;2023-03-21T01:00:18;6.78;;;5.78;;
76978;SDS011;65911;47.502;19.148;2023-03-21T01:03:21;7.70;;;5.22;;
76978;SDS011;65911;47.502;19.148;2023-03-21T01:06:27;8.90;;;4.93;;
76978;SDS011;65911;47.502;19.148;2023-03-21T01:09:29;7.70;;;4.47;;
76978;SDS011;65911;47.502;19.148;2023-03-21T01:12:31;6.30;;;4.40;;
76978;SDS011;65911;47.502;19.148;2023-03-21T01:15:34;6.93;;;5.07;;
76978;SDS011;65911;47.502;19.148;2023-03-21T01:18:38;10.17;;;5.40;;
76978;SDS011;65911;47.502;19.148;2023-03-21T01:21:41;8.52;;;5.30;;
76978;SDS011;65911;47.502;19.148;2023-03-21T01:24:44;7.32;;;5.22;;
76978;SDS011;65911;47.502;19.148;2023-03-21T01:27:56;6.88;;;5.13;;
76978;SDS011;65911;47.502;19.148;2023-03-21T01:30:59;7.07;;;4.32;;
76978;SDS011;65911;47.502;19.148;2023-03-21T01:34:03;6.03;;;4.72;;
76978;SDS011;65911;47.502;19.148;2023-03-21T01:37:05;8.88;;;4.57;;
76978;SDS011;65911;47.502;19.148;2023-03-21T01:40:23;7.07;;;4.47;;
76978;SDS011;65911;47.502;19.148;2023-03-21T01:43:35;5.32;;;4.18;;
76978;SDS011;65911;47.502;19.148;2023-03-21T01:46:41;9.25;;;4.55;;
76978;SDS011;65911;47.502;19.148;2023-03-21T01:50:19;7.40;;;4.83;;
76978;SDS011;65911;47.502;19.148;2023-03-21T01:53:47;6.35;;;4.13;;
76978;SDS011;65911;47.502;19.148;2023-03-21T01:56:50;6.68;;;4.65;;
76978;SDS011;65911;47.502;19.148;2023-03-21T01:59:55;7.40;;;4.47;;
76978;SDS011;65911;47.502;19.148;2023-03-21T02:02:58;7.32;;;4.32;;
76978;SDS011;65911;47.502;19.148;2023-03-21T02:06:29;5.70;;;4.85;;
76978;SDS011;65911;47.502;19.148;2023-03-21T02:09:47;7.05;;;5.00;;
76978;SDS011;65911;47.502;19.148;2023-03-21T02:12:54;6.97;;;4.37;;
76978;SDS011;65911;47.502;19.148;2023-03-21T02:16:21;6.40;;;4.50;;
76978;SDS011;65911;47.502;19.148;2023-03-21T02:19:43;6.65;;;5.00;;
76978;SDS011;65911;47.502;19.148;2023-03-21T02:23:15;5.67;;;4.17;;
76978;SDS011;65911;47.502;19.148;2023-03-21T02:26:48;6.47;;;4.20;;
76978;SDS011;65911;47.502;19.148;2023-03-21T02:37:50;4.97;;;3.78;;
76978;SDS011;65911;47.502;19.148;2023-03-21T02:41:05;5.93;;;4.28;;
76978;SDS011;65911;47.502;19.148;2023-03-21T02:47:50;6.83;;;4.40;;
76978;SDS011;65911;47.502;19.148;2023-03-21T02:50:56;4.95;;;3.75;;
76978;SDS011;65911;47.502;19.148;2023-03-21T02:54:01;5.93;;;4.22;;
76978;SDS011;65911;47.502;19.148;2023-03-21T02:57:26;5.97;;;4.83;;
76978;SDS011;65911;47.502;19.148;2023-03-21T03:00:44;6.15;;;4.00;;
76978;SDS011;65911;47.502;19.148;2023-03-21T03:03:55;6.85;;;4.05;;
76978;SDS011;65911;47.502;19.148;2023-03-21T03:13:20;6.03;;;4.40;;
76978;SDS011;65911;47.502;19.148;2023-03-21T03:16:57;4.70;;;4.03;;
76978;SDS011;65911;47.502;19.148;2023-03-21T03:20:07;9.10;;;5.10;;
76978;SDS011;65911;47.502;19.148;2023-03-21T03:26:33;7.00;;;4.10;;
76978;SDS011;65911;47.502;19.148;2023-03-21T03:29:39;6.47;;;4.03;;
76978;SDS011;65911;47.502;19.148;2023-03-21T03:32:44;5.03;;;3.63;;
76978;SDS011;65911;47.502;19.148;2023-03-21T03:35:49;6.03;;;4.22;;
76978;SDS011;65911;47.502;19.148;2023-03-21T03:39:09;5.97;;;3.72;;
76978;SDS011;65911;47.502;19.148;2023-03-21T03:42:18;5.88;;;4.15;;
76978;SDS011;65911;47.502;19.148;2023-03-21T03:45:42;6.15;;;4.05;;
76978;SDS011;65911;47.502;19.148;2023-03-21T03:48:54;4.80;;;3.92;;
76978;SDS011;65911;47.502;19.148;2023-03-21T03:51:59;5.13;;;4.17;;
76978;SDS011;65911;47.502;19.148;2023-03-21T03:55:11;4.32;;;3.65;;
76978;SDS011;65911;47.502;19.148;2023-03-21T03:58:17;5.57;;;4.15;;
76978;SDS011;65911;47.502;19.148;2023-03-21T04:01:27;6.63;;;4.13;;
76978;SDS011;65911;47.502;19.148;2023-03-21T04:04:31;5.15;;;3.40;;
76978;SDS011;65911;47.502;19.148;2023-03-21T04:07:44;5.95;;;3.50;;
76978;SDS011;65911;47.502;19.148;2023-03-21T04:10:47;5.07;;;3.30;;
76978;SDS011;65911;47.502;19.148;2023-03-21T04:13:50;5.13;;;3.42;;
76978;SDS011;65911;47.502;19.148;2023-03-21T04:16:57;4.75;;;3.78;;
76978;SDS011;65911;47.502;19.148;2023-03-21T04:20:00;5.78;;;3.80;;
76978;SDS011;65911;47.502;19.148;2023-03-21T04:23:16;5.73;;;3.30;;
76978;SDS011;65911;47.502;19.148;2023-03-21T04:26:22;4.00;;;3.33;;
76978;SDS011;65911;47.502;19.148;2023-03-21T04:29:48;5.63;;;3.45;;
76978;SDS011;65911;47.502;19.148;2023-03-21T04:33:03;5.23;;;3.43;;
76978;SDS011;65911;47.502;19.148;2023-03-21T04:36:07;7.25;;;3.50;;
76978;SDS011;65911;47.502;19.148;2023-03-21T04:39:12;4.25;;;3.25;;
76978;SDS011;65911;47.502;19.148;2023-03-21T04:42:21;4.32;;;3.08;;
76978;SDS011;65911;47.502;19.148;2023-03-21T04:45:23;4.25;;;3.58;;
76978;SDS011;65911;47.502;19.148;2023-03-21T04:48:27;5.80;;;3.72;;
76978;SDS011;65911;47.502;19.148;2023-03-21T04:51:30;5.13;;;3.28;;
76978;SDS011;65911;47.502;19.148;2023-03-21T04:54:33;5.67;;;3.30;;
76978;SDS011;65911;47.502;19.148;2023-03-21T04:57:36;4.63;;;3.50;;
76978;SDS011;65911;47.502;19.148;2023-03-21T05:00:40;5.63;;;3.40;;
76978;SDS011;65911;47.502;19.148;2023-03-21T05:03:42;4.97;;;3.30;;
76978;SDS011;65911;47.502;19.148;2023-03-21T05:06:44;5.22;;;3.50;;
76978;SDS011;65911;47.502;19.148;2023-03-21T05:09:46;5.88;;;3.67;;
76978;SDS011;65911;47.502;19.148;2023-03-21T05:12:50;4.80;;;3.33;;
76978;SDS011;65911;47.502;19.148;2023-03-21T05:15:53;4.35;;;3.03;;
76978;SDS011;65911;47.502;19.148;2023-03-21T05:18:58;5.88;;;3.50;;
76978;SDS011;65911;47.502;19.148;2023-03-21T05:22:11;7.30;;;3.55;;
76978;SDS011;65911;47.502;19.148;2023-03-21T05:25:16;4.93;;;3.00;;
76978;SDS011;65911;47.502;19.148;2023-03-21T05:28:44;5.72;;;3.83;;
76978;SDS011;65911;47.502;19.148;2023-03-21T05:31:48;5.38;;;3.45;;
76978;SDS011;65911;47.502;19.148;2023-03-21T05:34:51;3.93;;;2.93;;
76978;SDS011;65911;47.502;19.148;2023-03-21T05:37:56;4.00;;;3.17;;
76978;SDS011;65911;47.502;19.148;2023-03-21T05:41:00;3.90;;;2.90;;
76978;SDS011;65911;47.502;19.148;2023-03-21T05:44:03;4.93;;;3.30;;
76978;SDS011;65911;47.502;19.148;2023-03-21T05:47:06;4.78;;;3.30;;
76978;SDS011;65911;47.502;19.148;2023-03-21T05:50:19;3.90;;;3.03;;
76978;SDS011;65911;47.502;19.148;2023-03-21T05:53:35;4.72;;;2.50;;
76978;SDS011;65911;47.502;19.148;2023-03-21T05:56:41;4.93;;;3.37;;
76978;SDS011;65911;47.502;19.148;2023-03-21T05:59:46;4.18;;;3.25;;
76978;SDS011;65911;47.502;19.148;2023-03-21T06:02:51;4.50;;;2.70;;
76978;SDS011;65911;47.502;19.148;2023-03-21T06:06:21;6.93;;;3.10;;
76978;SDS011;65911;47.502;19.148;2023-03-21T06:09:32;4.90;;;3.08;;
76978;SDS011;65911;47.502;19.148;2023-03-21T06:12:37;3.75;;;3.10;;
76978;SDS011;65911;47.502;19.148;2023-03-21T06:16:02;3.78;;;3.25;;
76978;SDS011;65911;47.502;19.148;2023-03-21T06:19:07;5.65;;;3.22;;
76978;SDS011;65911;47.502;19.148;2023-03-21T06:22:36;5.50;;;3.55;;
76978;SDS011;65911;47.502;19.148;2023-03-21T06:25:39;7.55;;;3.20;;
76978;SDS011;65911;47.502;19.148;2023-03-21T06:28:42;6.27;;;3.53;;
76978;SDS011;65911;47.502;19.148;2023-03-21T06:31:44;7.95;;;3.72;;
76978;SDS011;65911;47.502;19.148;2023-03-21T06:34:47;6.55;;;3.40;;
76978;SDS011;65911;47.502;19.148;2023-03-21T06:37:50;5.17;;;3.27;;
76978;SDS011;65911;47.502;19.148;2023-03-21T06:40:53;6.05;;;3.55;;
76978;SDS011;65911;47.502;19.148;2023-03-21T06:43:58;4.22;;;2.85;;
76978;SDS011;65911;47.502;19.148;2023-03-21T06:47:01;3.67;;;2.80;;
76978;SDS011;65911;47.502;19.148;2023-03-21T06:50:04;4.22;;;2.90;;
76978;SDS011;65911;47.502;19.148;2023-03-21T06:53:13;5.65;;;2.70;;
76978;SDS011;65911;47.502;19.148;2023-03-21T06:56:42;2.90;;;2.17;;
76978;SDS011;65911;47.502;19.148;2023-03-21T06:59:47;3.20;;;1.90;;
76978;SDS011;65911;47.502;19.148;2023-03-21T07:02:53;5.80;;;3.05;;
76978;SDS011;65911;47.502;19.148;2023-03-21T07:06:02;9.52;;;2.97;;
76978;SDS011;65911;47.502;19.148;2023-03-21T07:09:14;6.43;;;2.30;;
76978;SDS011;65911;47.502;19.148;2023-03-21T07:12:21;6.47;;;2.67;;
76978;SDS011;65911;47.502;19.148;2023-03-21T07:15:56;11.07;;;2.92;;
76978;SDS011;65911;47.502;19.148;2023-03-21T07:19:04;3.78;;;3.00;;
76978;SDS011;65911;47.502;19.148;2023-03-21T07:22:06;5.30;;;3.08;;
76978;SDS011;65911;47.502;19.148;2023-03-21T07:25:09;7.68;;;2.42;;
76978;SDS011;65911;47.502;19.148;2023-03-21T07:28:15;7.88;;;2.80;;
76978;SDS011;65911;47.502;19.148;2023-03-21T07:31:18;7.10;;;2.80;;
76978;SDS011;65911;47.502;19.148;2023-03-21T07:34:22;7.75;;;3.45;;
76978;SDS011;65911;47.502;19.148;2023-03-21T07:37:24;8.02;;;2.60;;
76978;SDS011;65911;47.502;19.148;2023-03-21T07:40:27;7.80;;;2.47;;
76978;SDS011;65911;47.502;19.148;2023-03-21T07:43:29;6.68;;;2.83;;
76978;SDS011;65911;47.502;19.148;2023-03-21T07:46:32;5.57;;;2.42;;
76978;SDS011;65911;47.502;19.148;2023-03-21T07:49:35;7.05;;;2.55;;
76978;SDS011;65911;47.502;19.148;2023-03-21T07:52:38;7.63;;;2.30;;
76978;SDS011;65911;47.502;19.148;2023-03-21T07:55:40;5.18;;;2.50;;
76978;SDS011;65911;47.502;19.148;2023-03-21T07:58:43;4.15;;;2.80;;
76978;SDS011;65911;47.502;19.148;2023-03-21T08:01:45;5.50;;;2.60;;
76978;SDS011;65911;47.502;19.148;2023-03-21T08:04:47;3.33;;;2.50;;
76978;SDS011;65911;47.502;19.148;2023-03-21T08:07:50;9.55;;;2.30;;
76978;SDS011;65911;47.502;19.148;2023-03-21T08:10:52;10.30;;;2.43;;
76978;SDS011;65911;47.502;19.148;2023-03-21T08:13:55;6.38;;;2.40;;
76978;SDS011;65911;47.502;19.148;2023-03-21T08:16:59;7.15;;;2.30;;
76978;SDS011;65911;47.502;19.148;2023-03-21T08:20:02;9.00;;;2.05;;
76978;SDS011;65911;47.502;19.148;2023-03-21T08:23:08;5.65;;;2.30;;
76978;SDS011;65911;47.502;19.148;2023-03-21T08:26:11;5.55;;;2.38;;
76978;SDS011;65911;47.502;19.148;2023-03-21T08:29:16;7.05;;;2.03;;
76978;SDS011;65911;47.502;19.148;2023-03-21T08:32:19;7.00;;;3.00;;
76978;SDS011;65911;47.502;19.148;2023-03-21T08:35:21;8.82;;;2.45;;
76978;SDS011;65911;47.502;19.148;2023-03-21T08:38:23;6.07;;;2.13;;
76978;SDS011;65911;47.502;19.148;2023-03-21T08:41:31;3.50;;;2.60;;
76978;SDS011;65911;47.502;19.148;2023-03-21T08:44:33;3.67;;;2.80;;
76978;SDS011;65911;47.502;19.148;2023-03-21T08:47:36;8.30;;;2.60;;
76978;SDS011;65911;47.502;19.148;2023-03-21T08:50:38;7.07;;;2.40;;
76978;SDS011;65911;47.502;19.148;2023-03-21T08:53:42;6.20;;;2.20;;
76978;SDS011;65911;47.502;19.148;2023-03-21T08:56:45;6.35;;;2.55;;
76978;SDS011;65911;47.502;19.148;2023-03-21T08:59:47;13.35;;;2.75;;
76978;SDS011;65911;47.502;19.148;2023-03-21T09:02:56;6.47;;;2.40;;
76978;SDS011;65911;47.502;19.148;2023-03-21T09:06:00;9.15;;;2.65;;
76978;SDS011;65911;47.502;19.148;2023-03-21T09:09:04;9.30;;;2.67;;
76978;SDS011;65911;47.502;19.148;2023-03-21T09:12:08;8.13;;;2.70;;
76978;SDS011;65911;47.502;19.148;2023-03-21T09:15:11;4.78;;;2.30;;
76978;SDS011;65911;47.502;19.148;2023-03-21T09:18:15;6.10;;;2.15;;
76978;SDS011;65911;47.502;19.148;2023-03-21T09:21:19;4.10;;;1.75;;
76978;SDS011;65911;47.502;19.148;2023-03-21T09:24:22;5.90;;;2.15;;
76978;SDS011;65911;47.502;19.148;2023-03-21T09:27:25;6.97;;;2.55;;
76978;SDS011;65911;47.502;19.148;2023-03-21T09:30:32;4.93;;;2.40;;
76978;SDS011;65911;47.502;19.148;2023-03-21T09:33:39;3.43;;;1.90;;
76978;SDS011;65911;47.502;19.148;2023-03-21T09:36:42;3.20;;;2.38;;
76978;SDS011;65911;47.502;19.148;2023-03-21T09:39:49;5.88;;;2.55;;
76978;SDS011;65911;47.502;19.148;2023-03-21T09:46:18;4.72;;;1.63;;
76978;SDS011;65911;47.502;19.148;2023-03-21T09:49:39;3.45;;;2.42;;
76978;SDS011;65911;47.502;19.148;2023-03-21T09:53:24;3.42;;;1.92;;
76978;SDS011;65911;47.502;19.148;2023-03-21T09:56:32;7.60;;;2.78;;
76978;SDS011;65911;47.502;19.148;2023-03-21T09:59:37;5.47;;;2.10;;
76978;SDS011;65911;47.502;19.148;2023-03-21T10:02:50;5.45;;;2.45;;
76978;SDS011;65911;47.502;19.148;2023-03-21T10:05:58;4.03;;;2.03;;
76978;SDS011;65911;47.502;19.148;2023-03-21T10:09:02;3.83;;;1.70;;
76978;SDS011;65911;47.502;19.148;2023-03-21T10:12:23;3.60;;;2.30;;
76978;SDS011;65911;47.502;19.148;2023-03-21T10:15:31;3.83;;;2.10;;
76978;SDS011;65911;47.502;19.148;2023-03-21T10:18:36;9.20;;;2.17;;
76978;SDS011;65911;47.502;19.148;2023-03-21T10:21:42;3.70;;;2.40;;
76978;SDS011;65911;47.502;19.148;2023-03-21T10:25:05;4.50;;;2.00;;
76978;SDS011;65911;47.502;19.148;2023-03-21T10:28:20;6.30;;;2.47;;
76978;SDS011;65911;47.502;19.148;2023-03-21T10:31:24;4.13;;;2.28;;
76978;SDS011;65911;47.502;19.148;2023-03-21T10:34:30;4.28;;;2.00;;
76978;SDS011;65911;47.502;19.148;2023-03-21T10:37:34;4.60;;;1.83;;
76978;SDS011;65911;47.502;19.148;2023-03-21T10:40:37;4.82;;;1.90;;
76978;SDS011;65911;47.502;19.148;2023-03-21T10:43:45;4.30;;;2.03;;
76978;SDS011;65911;47.502;19.148;2023-03-21T10:46:55;4.97;;;2.20;;
76978;SDS011;65911;47.502;19.148;2023-03-21T10:50:07;4.35;;;2.05;;
76978;SDS011;65911;47.502;19.148;2023-03-21T10:53:26;3.30;;;1.95;;
76978;SDS011;65911;47.502;19.148;2023-03-21T10:56:37;4.00;;;2.13;;
76978;SDS011;65911;47.502;19.148;2023-03-21T10:59:43;3.75;;;2.40;;
76978;SDS011;65911;47.502;19.148;2023-03-21T11:02:49;3.40;;;1.70;;
76978;SDS011;65911;47.502;19.148;2023-03-21T11:05:54;4.38;;;2.03;;
76978;SDS011;65911;47.502;19.148;2023-03-21T11:09:07;4.00;;;1.63;;
76978;SDS011;65911;47.502;19.148;2023-03-21T11:12:18;3.60;;;2.03;;
76978;SDS011;65911;47.502;19.148;2023-03-21T11:15:40;3.72;;;2.10;;
76978;SDS011;65911;47.502;19.148;2023-03-21T11:18:50;4.27;;;2.20;;
76978;SDS011;65911;47.502;19.148;2023-03-21T11:21:55;5.70;;;1.90;;
76978;SDS011;65911;47.502;19.148;2023-03-21T11:24:59;4.88;;;1.83;;
76978;SDS011;65911;47.502;19.148;2023-03-21T11:28:06;5.38;;;1.90;;
76978;SDS011;65911;47.502;19.148;2023-03-21T11:31:13;3.35;;;1.80;;
76978;SDS011;65911;47.502;19.148;2023-03-21T11:34:25;4.13;;;1.30;;
76978;SDS011;65911;47.502;19.148;2023-03-21T11:38:22;6.25;;;1.77;;
76978;SDS011;65911;47.502;19.148;2023-03-21T11:40:57;4.30;;;2.10;;
76978;SDS011;65911;47.502;19.148;2023-03-21T11:44:02;2.65;;;1.90;;
76978;SDS011;65911;47.502;19.148;2023-03-21T11:47:07;4.43;;;1.40;;
76978;SDS011;65911;47.502;19.148;2023-03-21T11:50:22;4.23;;;1.60;;
76978;SDS011;65911;47.502;19.148;2023-03-21T12:10:42;3.53;;;1.95;;
76978;SDS011;65911;47.502;19.148;2023-03-21T12:17:55;3.97;;;1.67;;
76978;SDS011;65911;47.502;19.148;2023-03-21T12:27:47;3.08;;;1.65;;
76978;SDS011;65911;47.502;19.148;2023-03-21T12:31:06;4.80;;;1.60;;
76978;SDS011;65911;47.502;19.148;2023-03-21T12:34:17;3.30;;;1.60;;
76978;SDS011;65911;47.502;19.148;2023-03-21T12:44:35;5.72;;;1.50;;
76978;SDS011;65911;47.502;19.148;2023-03-21T12:47:40;3.07;;;1.30;;
76978;SDS011;65911;47.502;19.148;2023-03-21T12:50:44;2.88;;;1.60;;
76978;SDS011;65911;47.502;19.148;2023-03-21T12:53:50;2.28;;;1.30;;
76978;SDS011;65911;47.502;19.148;2023-03-21T12:57:03;2.83;;;1.60;;
76978;SDS011;65911;47.502;19.148;2023-03-21T13:00:20;4.75;;;1.42;;
76978;SDS011;65911;47.502;19.148;2023-03-21T13:03:35;5.05;;;1.40;;
76978;SDS011;65911;47.502;19.148;2023-03-21T13:06:42;3.28;;;1.15;;
76978;SDS011;65911;47.502;19.148;2023-03-21T13:09:45;4.15;;;1.15;;
76978;SDS011;65911;47.502;19.148;2023-03-21T13:16:19;3.17;;;1.38;;
76978;SDS011;65911;47.502;19.148;2023-03-21T13:19:38;3.10;;;0.83;;
76978;SDS011;65911;47.502;19.148;2023-03-21T13:22:43;2.50;;;1.00;;
76978;SDS011;65911;47.502;19.148;2023-03-21T13:25:47;3.75;;;1.08;;
76978;SDS011;65911;47.502;19.148;2023-03-21T13:28:50;6.30;;;1.20;;
76978;SDS011;65911;47.502;19.148;2023-03-21T13:31:54;6.70;;;1.20;;
76978;SDS011;65911;47.502;19.148;2023-03-21T13:34:59;3.55;;;1.17;;
76978;SDS011;65911;47.502;19.148;2023-03-21T13:38:25;5.93;;;1.33;;
76978;SDS011;65911;47.502;19.148;2023-03-21T13:47:41;4.82;;;1.20;;
76978;SDS011;65911;47.502;19.148;2023-03-21T13:51:03;5.27;;;1.10;;
76978;SDS011;65911;47.502;19.148;2023-03-21T13:57:13;2.95;;;0.98;;
76978;SDS011;65911;47.502;19.148;2023-03-21T14:00:28;2.83;;;1.10;;
76978;SDS011;65911;47.502;19.148;2023-03-21T14:03:32;2.90;;;1.10;;
76978;SDS011;65911;47.502;19.148;2023-03-21T14:07:11;2.00;;;0.80;;
76978;SDS011;65911;47.502;19.148;2023-03-21T14:10:16;5.68;;;1.02;;
76978;SDS011;65911;47.502;19.148;2023-03-21T14:13:21;2.05;;;1.05;;
76978;SDS011;65911;47.502;19.148;2023-03-21T14:16:26;2.33;;;1.23;;
76978;SDS011;65911;47.502;19.148;2023-03-21T14:19:34;1.48;;;0.90;;
76978;SDS011;65911;47.502;19.148;2023-03-21T14:22:37;3.60;;;1.00;;
76978;SDS011;65911;47.502;19.148;2023-03-21T14:25:40;2.28;;;1.08;;
76978;SDS011;65911;47.502;19.148;2023-03-21T14:28:51;3.25;;;1.23;;
76978;SDS011;65911;47.502;19.148;2023-03-21T14:31:54;3.07;;;1.10;;
76978;SDS011;65911;47.502;19.148;2023-03-21T14:34:58;1.20;;;0.98;;
76978;SDS011;65911;47.502;19.148;2023-03-21T14:38:05;4.03;;;1.20;;
76978;SDS011;65911;47.502;19.148;2023-03-21T14:41:20;1.80;;;1.30;;
76978;SDS011;65911;47.502;19.148;2023-03-21T14:44:31;1.35;;;1.00;;
76978;SDS011;65911;47.502;19.148;2023-03-21T14:47:59;1.40;;;1.00;;
76978;SDS011;65911;47.502;19.148;2023-03-21T14:51:05;2.55;;;0.60;;
76978;SDS011;65911;47.502;19.148;2023-03-21T14:54:13;1.70;;;0.80;;
76978;SDS011;65911;47.502;19.148;2023-03-21T14:57:20;2.40;;;0.95;;
76978;SDS011;65911;47.502;19.148;2023-03-21T15:00:26;2.33;;;0.98;;
76978;SDS011;65911;47.502;19.148;2023-03-21T15:03:30;1.73;;;1.10;;
76978;SDS011;65911;47.502;19.148;2023-03-21T15:06:33;1.60;;;0.95;;
76978;SDS011;65911;47.502;19.148;2023-03-21T15:09:57;2.53;;;1.00;;
76978;SDS011;65911;47.502;19.148;2023-03-21T15:13:13;1.92;;;1.20;;
76978;SDS011;65911;47.502;19.148;2023-03-21T15:16:17;3.83;;;1.00;;
76978;SDS011;65911;47.502;19.148;2023-03-21T15:19:22;1.80;;;0.95;;
76978;SDS011;65911;47.502;19.148;2023-03-21T15:22:31;1.95;;;1.20;;
76978;SDS011;65911;47.502;19.148;2023-03-21T15:25:38;1.63;;;0.63;;
76978;SDS011;65911;47.502;19.148;2023-03-21T15:28:41;1.85;;;1.08;;
76978;SDS011;65911;47.502;19.148;2023-03-21T15:31:46;1.23;;;1.08;;
76978;SDS011;65911;47.502;19.148;2023-03-21T15:34:49;2.43;;;1.10;;
76978;SDS011;65911;47.502;19.148;2023-03-21T15:37:56;1.40;;;1.23;;
76978;SDS011;65911;47.502;19.148;2023-03-21T15:44:20;3.50;;;1.30;;
76978;SDS011;65911;47.502;19.148;2023-03-21T15:47:38;3.95;;;1.42;;
76978;SDS011;65911;47.502;19.148;2023-03-21T15:50:46;1.95;;;1.50;;
76978;SDS011;65911;47.502;19.148;2023-03-21T15:53:52;2.30;;;1.30;;
76978;SDS011;65911;47.502;19.148;2023-03-21T15:56:56;1.40;;;1.10;;
76978;SDS011;65911;47.502;19.148;2023-03-21T16:03:25;3.88;;;1.42;;
76978;SDS011;65911;47.502;19.148;2023-03-21T16:06:30;2.47;;;1.33;;
76978;SDS011;65911;47.502;19.148;2023-03-21T16:09:41;2.60;;;1.40;;
76978;SDS011;65911;47.502;19.148;2023-03-21T16:12:44;3.63;;;1.20;;
76978;SDS011;65911;47.502;19.148;2023-03-21T16:15:47;2.40;;;1.50;;
76978;SDS011;65911;47.502;19.148;2023-03-21T16:18:49;1.90;;;1.60;;
76978;SDS011;65911;47.502;19.148;2023-03-21T16:21:52;2.25;;;1.58;;
76978;SDS011;65911;47.502;19.148;2023-03-21T16:24:54;2.38;;;1.50;;
76978;SDS011;65911;47.502;19.148;2023-03-21T16:27:56;4.20;;;1.40;;
76978;SDS011;65911;47.502;19.148;2023-03-21T16:30:59;2.40;;;1.60;;
76978;SDS011;65911;47.502;19.148;2023-03-21T16:34:01;4.43;;;1.65;;
76978;SDS011;65911;47.502;19.148;2023-03-21T16:37:07;2.90;;;1.57;;
76978;SDS011;65911;47.502;19.148;2023-03-21T16:40:14;3.13;;;2.00;;
76978;SDS011;65911;47.502;19.148;2023-03-21T16:43:19;2.85;;;1.90;;
76978;SDS011;65911;47.502;19.148;2023-03-21T16:46:22;2.88;;;1.67;;
76978;SDS011;65911;47.502;19.148;2023-03-21T16:49:26;3.67;;;2.35;;
76978;SDS011;65911;47.502;19.148;2023-03-21T16:52:28;3.85;;;2.40;;
76978;SDS011;65911;47.502;19.148;2023-03-21T16:55:30;3.42;;;2.38;;
76978;SDS011;65911;47.502;19.148;2023-03-21T16:58:34;4.43;;;2.10;;
76978;SDS011;65911;47.502;19.148;2023-03-21T17:01:36;4.28;;;2.55;;
76978;SDS011;65911;47.502;19.148;2023-03-21T17:04:41;3.45;;;1.98;;
76978;SDS011;65911;47.502;19.148;2023-03-21T17:07:43;3.73;;;2.20;;
76978;SDS011;65911;47.502;19.148;2023-03-21T17:10:47;4.05;;;2.13;;
76978;SDS011;65911;47.502;19.148;2023-03-21T17:13:51;6.78;;;2.40;;
76978;SDS011;65911;47.502;19.148;2023-03-21T17:16:54;3.65;;;2.20;;
76978;SDS011;65911;47.502;19.148;2023-03-21T17:19:57;4.97;;;2.38;;
76978;SDS011;65911;47.502;19.148;2023-03-21T17:22:59;2.97;;;2.03;;
76978;SDS011;65911;47.502;19.148;2023-03-21T17:26:02;4.32;;;2.13;;
76978;SDS011;65911;47.502;19.148;2023-03-21T17:29:04;2.63;;;2.20;;
76978;SDS011;65911;47.502;19.148;2023-03-21T17:32:06;3.10;;;2.58;;
76978;SDS011;65911;47.502;19.148;2023-03-21T17:35:09;3.10;;;2.08;;
76978;SDS011;65911;47.502;19.148;2023-03-21T17:38:13;4.03;;;2.40;;
76978;SDS011;65911;47.502;19.148;2023-03-21T17:41:18;4.10;;;2.33;;
76978;SDS011;65911;47.502;19.148;2023-03-21T17:44:21;5.53;;;2.90;;
76978;SDS011;65911;47.502;19.148;2023-03-21T17:47:23;4.80;;;2.70;;
76978;SDS011;65911;47.502;19.148;2023-03-21T17:50:29;4.70;;;2.92;;
76978;SDS011;65911;47.502;19.148;2023-03-21T17:53:35;6.30;;;2.80;;
76978;SDS011;65911;47.502;19.148;2023-03-21T17:56:37;5.05;;;2.30;;
76978;SDS011;65911;47.502;19.148;2023-03-21T17:59:42;4.03;;;2.50;;
76978;SDS011;65911;47.502;19.148;2023-03-21T18:02:45;3.65;;;2.10;;
76978;SDS011;65911;47.502;19.148;2023-03-21T18:05:48;7.20;;;3.10;;
76978;SDS011;65911;47.502;19.148;2023-03-21T18:08:50;5.13;;;2.63;;
76978;SDS011;65911;47.502;19.148;2023-03-21T18:11:53;4.82;;;2.80;;
76978;SDS011;65911;47.502;19.148;2023-03-21T18:14:56;3.88;;;2.55;;
76978;SDS011;65911;47.502;19.148;2023-03-21T18:17:58;5.30;;;3.03;;
76978;SDS011;65911;47.502;19.148;2023-03-21T18:21:00;4.32;;;3.13;;
76978;SDS011;65911;47.502;19.148;2023-03-21T18:24:03;6.68;;;2.80;;
76978;SDS011;65911;47.502;19.148;2023-03-21T18:27:06;4.57;;;2.85;;
76978;SDS011;65911;47.502;19.148;2023-03-21T18:30:12;5.43;;;3.17;;
76978;SDS011;65911;47.502;19.148;2023-03-21T18:33:36;5.22;;;2.83;;
76978;SDS011;65911;47.502;19.148;2023-03-21T18:36:41;4.85;;;3.17;;
76978;SDS011;65911;47.502;19.148;2023-03-21T18:39:43;3.90;;;2.73;;
76978;SDS011;65911;47.502;19.148;2023-03-21T18:42:46;6.57;;;2.80;;
76978;SDS011;65911;47.502;19.148;2023-03-21T18:46:08;4.85;;;2.40;;
76978;SDS011;65911;47.502;19.148;2023-03-21T18:49:14;5.18;;;3.40;;
76978;SDS011;65911;47.502;19.148;2023-03-21T18:52:36;7.00;;;3.45;;
76978;SDS011;65911;47.502;19.148;2023-03-21T18:55:39;3.53;;;2.72;;
76978;SDS011;65911;47.502;19.148;2023-03-21T18:58:47;4.55;;;3.03;;
76978;SDS011;65911;47.502;19.148;2023-03-21T19:01:49;6.27;;;3.27;;
76978;SDS011;65911;47.502;19.148;2023-03-21T19:04:52;5.40;;;3.38;;
76978;SDS011;65911;47.502;19.148;2023-03-21T19:07:54;4.90;;;3.03;;
76978;SDS011;65911;47.502;19.148;2023-03-21T19:10:57;4.80;;;2.90;;
76978;SDS011;65911;47.502;19.148;2023-03-21T19:14:07;5.90;;;3.38;;
76978;SDS011;65911;47.502;19.148;2023-03-21T19:17:12;5.65;;;3.33;;
76978;SDS011;65911;47.502;19.148;2023-03-21T19:20:36;4.88;;;3.33;;
76978;SDS011;65911;47.502;19.148;2023-03-21T19:23:39;6.95;;;3.50;;
76978;SDS011;65911;47.502;19.148;2023-03-21T19:27:01;5.10;;;3.40;;
76978;SDS011;65911;47.502;19.148;2023-03-21T19:30:04;6.50;;;2.92;;
76978;SDS011;65911;47.502;19.148;2023-03-21T19:33:16;5.60;;;3.67;;
76978;SDS011;65911;47.502;19.148;2023-03-21T19:36:20;5.82;;;3.65;;
76978;SDS011;65911;47.502;19.148;2023-03-21T19:39:24;7.40;;;4.00;;
76978;SDS011;65911;47.502;19.148;2023-03-21T19:42:26;6.47;;;3.37;;
76978;SDS011;65911;47.502;19.148;2023-03-21T19:45:31;5.55;;;3.15;;
76978;SDS011;65911;47.502;19.148;2023-03-21T19:48:34;5.53;;;3.60;;
76978;SDS011;65911;47.502;19.148;2023-03-21T19:51:38;6.40;;;4.10;;